Time;durP1;ratioP1;P1;durP2;ratioP2;P2;SDS_P1;SDS_P2;PMS_P1;PMS_P2;Temp;Humidity;BMP_temperature;BMP_pressure;BME280_temperature;BME280_humidity;BME280_pressure;Samples;Min_cycle;Max_cycle;Signal;HPM_P1;HPM_P2
2024/04/16 00:01:44;;;;;;;2.17;1.25;;;21.00;77.90;;;;;;5439354;26;20227;-48
2024/04/16 00:04:12;;;;;;;2.10;1.02;;;21.00;77.80;;;;;;5436505;26;20822;-50
2024/04/16 00:06:40;;;;;;;1.42;1.00;;;21.40;78.40;;;;;;5425834;26;20255;-60
2024/04/16 00:09:09;;;;;;;1.25;0.80;;;21.20;78.20;;;;;;5440290;26;20246;-59
2024/04/16 00:11:45;;;;;;;1.50;1.10;;;20.90;77.90;;;;;;5421973;26;20876;-58
2024/04/16 00:14:15;;;;;;;1.60;0.93;;;21.50;78.70;;;;;;5443171;26;20272;-43
2024/04/16 00:16:41;;;;;;;2.53;1.10;;;20.90;78.00;;;;;;5433980;26;20235;-61
2024/04/16 00:19:13;;;;;;;2.10;1.13;;;20.50;77.80;;;;;;5427709;26;20356;-51
2024/04/16 00:21:38;;;;;;;1.48;1.00;;;20.80;78.20;;;;;;5426709;26;20366;-52
2024/04/16 00:24:09;;;;;;;1.30;0.93;;;20.80;78.50;;;;;;5420943;26;20872;-49
2024/04/16 00:26:38;;;;;;;1.20;0.80;;;20.80;78.40;;;;;;5436746;26;20579;-48
2024/04/16 00:29:06;;;;;;;1.10;0.80;;;20.40;78.10;;;;;;5435784;26;20358;-61
2024/04/16 00:31:32;;;;;;;1.25;1.00;;;20.70;78.80;;;;;;5430044;26;20356;-52
2024/04/16 00:34:04;;;;;;;1.37;0.60;;;20.50;78.60;;;;;;5425072;26;20230;-60
2024/04/16 00:36:30;;;;;;;1.95;0.90;;;20.60;78.70;;;;;;5430707;26;20612;-54
2024/04/16 00:38:58;;;;;;;1.30;0.83;;;20.60;79.00;;;;;;5440646;26;20226;-59
2024/04/16 00:41:28;;;;;;;1.85;1.10;;;20.60;79.10;;;;;;5430257;26;20461;-60
2024/04/16 00:43:59;;;;;;;1.50;0.98;;;20.30;79.00;;;;;;5442391;26;20294;-54
2024/04/16 00:46:26;;;;;;;1.00;0.80;;;20.60;79.30;;;;;;5420266;26;20793;-49
2024/04/16 00:48:55;;;;;;;2.25;0.90;;;20.50;79.30;;;;;;5426850;26;21639;-59
2024/04/16 00:51:21;;;;;;;1.55;0.90;;;20.20;79.10;;;;;;5429663;26;20243;-57
2024/04/16 00:53:53;;;;;;;1.70;1.00;;;20.20;79.10;;;;;;5430914;26;20226;-55
2024/04/16 00:56:19;;;;;;;1.45;0.95;;;20.50;79.50;;;;;;5429550;26;20242;-62
2024/04/16 00:58:47;;;;;;;1.40;0.90;;;20.50;79.70;;;;;;5415949;26;20483;-45
2024/04/16 01:01:16;;;;;;;2.85;1.13;;;20.40;79.70;;;;;;5434220;26;20594;-51
2024/04/16 01:03:56;;;;;;;1.25;0.95;;;20.40;80.00;;;;;;5437452;26;20689;-49
2024/04/16 01:06:25;;;;;;;1.10;0.70;;;20.40;80.10;;;;;;5430938;26;21040;-56
2024/04/16 01:08:53;;;;;;;1.10;0.80;;;20.90;80.80;;;;;;5429644;26;20241;-48
2024/04/16 01:11:23;;;;;;;1.30;0.90;;;20.30;80.20;;;;;;5418363;26;20727;-50
2024/04/16 01:13:54;;;;;;;1.70;1.10;;;20.30;80.40;;;;;;5429042;26;20227;-54
2024/04/16 01:16:23;;;;;;;1.38;0.90;;;20.60;80.60;;;;;;5426269;26;20742;-49
2024/04/16 01:18:51;;;;;;;1.77;0.90;;;20.10;80.20;;;;;;5439551;26;20273;-62
2024/04/16 01:21:19;;;;;;;1.27;0.80;;;19.90;80.10;;;;;;5426842;26;20242;-46
2024/04/16 01:23:50;;;;;;;1.30;0.80;;;20.30;80.40;;;;;;5423803;26;20261;-46
2024/04/16 01:26:18;;;;;;;1.48;0.90;;;20.30;80.60;;;;;;5431092;26;20358;-58
2024/04/16 01:28:49;;;;;;;1.33;0.90;;;20.20;80.60;;;;;;5416123;26;20232;-56
2024/04/16 01:31:24;;;;;;;1.50;0.90;;;20.20;80.70;;;;;;5423879;26;20243;-51
2024/04/16 01:33:55;;;;;;;1.50;1.05;;;20.10;80.60;;;;;;5441731;26;20354;-43
2024/04/16 01:36:21;;;;;;;1.73;0.97;;;20.10;80.70;;;;;;5420603;26;20731;-52
2024/04/16 01:38:52;;;;;;;1.10;0.97;;;20.10;81.00;;;;;;5427466;26;20528;-47
2024/04/16 01:41:18;;;;;;;2.72;0.90;;;20.10;81.00;;;;;;5436432;26;20337;-50
2024/04/16 01:43:46;;;;;;;1.70;0.90;;;20.30;81.50;;;;;;5432054;26;20282;-49
2024/04/16 01:46:12;;;;;;;2.10;1.15;;;20.10;81.10;;;;;;5426472;26;20226;-46
2024/04/16 01:48:40;;;;;;;1.07;0.83;;;19.70;80.90;;;;;;5437531;26;20697;-54
2024/04/16 01:51:08;;;;;;;1.30;0.90;;;19.90;81.10;;;;;;5436224;26;20238;-55
2024/04/16 01:53:36;;;;;;;1.27;0.80;;;20.00;81.60;;;;;;5430002;26;20351;-59
2024/04/16 01:56:08;;;;;;;1.20;0.80;;;20.60;82.10;;;;;;5434369;26;20833;-50
2024/04/16 01:58:38;;;;;;;1.48;0.80;;;20.00;82.10;;;;;;5415303;26;20235;-59
2024/04/16 02:01:04;;;;;;;2.13;1.00;;;19.90;81.60;;;;;;5435968;26;20238;-61
2024/04/16 02:03:32;;;;;;;2.17;1.20;;;19.90;81.70;;;;;;5432290;26;20341;-51
2024/04/16 02:06:01;;;;;;;1.30;0.82;;;19.90;81.70;;;;;;5436607;26;20853;-50
2024/04/16 02:08:29;;;;;;;1.38;0.90;;;19.90;81.80;;;;;;5437206;26;20723;-45
2024/04/16 02:10:57;;;;;;;1.63;0.95;;;19.90;82.10;;;;;;5434638;26;20234;-56
2024/04/16 02:13:31;;;;;;;1.52;1.42;;;19.90;82.20;;;;;;5413806;26;20235;-51
2024/04/16 02:16:04;;;;;;;1.83;0.90;;;19.70;81.80;;;;;;5433183;26;20242;-61
2024/04/16 02:18:40;;;;;;;1.13;0.90;;;19.50;81.70;;;;;;5431034;26;20610;-50
2024/04/16 02:21:10;;;;;;;3.15;1.38;;;19.80;82.10;;;;;;5439589;26;20514;-54
2024/04/16 02:23:40;;;;;;;2.13;0.90;;;19.80;82.20;;;;;;5429472;26;20274;-60
2024/04/16 02:26:06;;;;;;;1.30;1.02;;;19.80;82.40;;;;;;5424080;26;20240;-65
2024/04/16 02:28:37;;;;;;;1.43;1.00;;;19.80;82.50;;;;;;5420123;26;20405;-45
2024/04/16 02:31:03;;;;;;;7.38;1.00;;;20.00;82.70;;;;;;5435873;26;20471;-43
2024/04/16 02:33:32;;;;;;;1.50;1.05;;;19.70;82.40;;;;;;5441635;26;20231;-48
2024/04/16 02:36:02;;;;;;;1.75;1.00;;;19.70;82.60;;;;;;5426518;26;20336;-56
2024/04/16 02:38:33;;;;;;;1.45;0.98;;;19.70;82.60;;;;;;5425137;26;20363;-60
2024/04/16 02:41:01;;;;;;;0.90;0.60;;;19.70;82.60;;;;;;5440172;26;20591;-51
2024/04/16 02:43:39;;;;;;;1.50;0.90;;;19.60;82.60;;;;;;5440161;26;20269;-54
2024/04/16 02:46:10;;;;;;;4.53;3.58;;;19.50;82.50;;;;;;5433880;26;20339;-52
2024/04/16 02:48:40;;;;;;;1.00;0.80;;;19.90;83.10;;;;;;5419625;26;20270;-54
2024/04/16 02:51:11;;;;;;;1.48;0.90;;;19.60;82.90;;;;;;5440751;26;21252;-50
2024/04/16 02:53:48;;;;;;;1.60;1.00;;;19.60;83.40;;;;;;5438724;26;20243;-59
2024/04/16 02:56:17;;;;;;;1.17;0.85;;;19.20;82.60;;;;;;5438910;26;21100;-60
2024/04/16 02:58:44;;;;;;;1.00;0.80;;;19.60;83.10;;;;;;5443176;26;21127;-51
2024/04/16 03:01:17;;;;;;;1.30;0.90;;;19.20;82.90;;;;;;5424033;26;20238;-57
2024/04/16 03:03:49;;;;;;;1.75;0.90;;;19.30;83.00;;;;;;5446103;26;20227;-53
2024/04/16 03:06:17;;;;;;;1.55;1.00;;;19.50;83.20;;;;;;5426374;26;20227;-49
2024/04/16 03:08:45;;;;;;;1.27;0.90;;;19.50;83.30;;;;;;5432335;26;20242;-49
2024/04/16 03:11:16;;;;;;;1.75;1.65;;;19.50;83.40;;;;;;5431687;26;20222;-61
2024/04/16 03:13:47;;;;;;;2.05;0.88;;;19.20;83.10;;;;;;5436570;26;20255;-49
2024/04/16 03:16:24;;;;;;;1.38;0.90;;;19.80;83.80;;;;;;5430281;26;20257;-49
2024/04/16 03:18:49;;;;;;;1.58;1.15;;;19.50;83.50;;;;;;5445603;26;20321;-53
2024/04/16 03:21:22;;;;;;;1.80;0.90;;;19.50;83.70;;;;;;5434986;26;20467;-58
2024/04/16 03:23:52;;;;;;;1.90;0.80;;;19.30;83.60;;;;;;5430601;26;20296;-50
2024/04/16 03:26:22;;;;;;;1.10;0.90;;;19.20;83.40;;;;;;5425899;26;20257;-51
2024/04/16 03:28:53;;;;;;;1.20;1.10;;;19.90;84.30;;;;;;5429736;26;20346;-57
2024/04/16 03:31:28;;;;;;;1.48;0.98;;;19.10;83.40;;;;;;5422688;26;20271;-54
2024/04/16 03:33:57;;;;;;;1.30;0.80;;;19.40;83.60;;;;;;5425888;26;20353;-54
2024/04/16 03:36:25;;;;;;;1.00;0.70;;;19.40;83.90;;;;;;5417740;26;20255;-53
2024/04/16 03:38:56;;;;;;;1.40;0.90;;;19.10;83.70;;;;;;5438211;26;21561;-47
2024/04/16 03:41:28;;;;;;;1.00;0.70;;;19.20;83.80;;;;;;5437534;26;20303;-46
2024/04/16 03:43:56;;;;;;;1.45;0.90;;;19.40;84.10;;;;;;5422185;26;21364;-54
2024/04/16 03:46:24;;;;;;;1.35;1.00;;;19.40;84.20;;;;;;5431127;26;20238;-56
2024/04/16 03:49:00;;;;;;;1.00;0.70;;;19.40;84.30;;;;;;5450934;26;20318;-55
2024/04/16 03:51:28;;;;;;;1.10;0.80;;;19.30;84.10;;;;;;5443109;26;20242;-60
2024/04/16 03:54:03;;;;;;;1.60;1.00;;;19.00;83.90;;;;;;5444576;26;20683;-51
2024/04/16 03:56:30;;;;;;;1.55;0.80;;;19.30;84.20;;;;;;5434098;26;20824;-53
2024/04/16 03:59:15;;;;;;;1.10;0.90;;;19.10;84.00;;;;;;5440727;26;20230;-57
2024/04/16 04:01:46;;;;;;;1.27;0.80;;;19.30;84.30;;;;;;5417325;26;20235;-46
2024/04/16 04:04:14;;;;;;;1.40;1.00;;;19.30;84.50;;;;;;5439924;26;20301;-56
2024/04/16 04:06:43;;;;;;;1.05;0.85;;;19.30;84.50;;;;;;5426320;26;20296;-55
2024/04/16 04:09:11;;;;;;;1.00;0.80;;;18.80;84.00;;;;;;5441672;26;20246;-63
2024/04/16 04:11:40;;;;;;;1.10;0.82;;;19.00;84.30;;;;;;5422828;26;20351;-53
2024/04/16 04:14:10;;;;;;;1.00;0.80;;;19.20;84.50;;;;;;5442953;26;20234;-53
2024/04/16 04:16:48;;;;;;;1.10;0.90;;;19.50;85.10;;;;;;5434889;26;20335;-50
2024/04/16 04:19:17;;;;;;;1.20;0.80;;;19.30;84.70;;;;;;5429333;26;21144;-46
2024/04/16 04:21:50;;;;;;;1.23;0.80;;;19.00;84.50;;;;;;5433235;26;21094;-55
2024/04/16 04:24:22;;;;;;;1.55;0.93;;;19.70;85.30;;;;;;5436964;26;20226;-54
2024/04/16 04:26:56;;;;;;;1.80;1.10;;;19.30;84.60;;;;;;5440516;26;20897;-41
2024/04/16 04:29:23;;;;;;;1.42;1.10;;;19.20;84.80;;;;;;5420978;26;20793;-56
2024/04/16 04:31:59;;;;;;;1.13;0.70;;;18.90;84.80;;;;;;5428857;26;22362;-48
2024/04/16 04:34:29;;;;;;;1.10;0.80;;;19.20;84.80;;;;;;5428543;26;20719;-53
2024/04/16 04:37:03;;;;;;;1.33;1.00;;;19.70;85.40;;;;;;5423517;26;20318;-54
2024/04/16 04:39:32;;;;;;;1.27;0.82;;;19.20;84.90;;;;;;5439668;26;21912;-49
2024/04/16 04:42:05;;;;;;;1.00;0.80;;;19.20;85.10;;;;;;5432764;26;21546;-55
2024/04/16 04:44:33;;;;;;;1.83;0.80;;;18.70;84.70;;;;;;5435702;26;20223;-49
2024/04/16 04:47:14;;;;;;;1.30;0.75;;;18.70;85.10;;;;;;5434531;26;20235;-49
2024/04/16 04:49:42;;;;;;;1.10;0.90;;;19.10;85.20;;;;;;5424392;26;20234;-39
2024/04/16 04:52:11;;;;;;;2.25;1.02;;;18.80;85.10;;;;;;5418178;26;20507;-51
2024/04/16 04:54:36;;;;;;;1.70;1.05;;;18.50;84.70;;;;;;5438387;26;20238;-45
2024/04/16 04:57:05;;;;;;;1.27;0.90;;;18.80;85.10;;;;;;5428213;26;20289;-55
2024/04/16 04:59:31;;;;;;;1.75;1.10;;;18.80;85.00;;;;;;5433380;26;20566;-48
2024/04/16 05:02:02;;;;;;;1.00;0.87;;;19.10;85.40;;;;;;5434588;26;20234;-50
2024/04/16 05:04:31;;;;;;;2.33;0.98;;;19.10;85.30;;;;;;5439782;26;20605;-46
2024/04/16 05:07:02;;;;;;;1.38;0.82;;;18.90;85.30;;;;;;5426945;26;20346;-51
2024/04/16 05:09:31;;;;;;;0.90;0.70;;;19.10;85.60;;;;;;5424782;26;20319;-58
2024/04/16 05:11:59;;;;;;;1.40;0.90;;;19.50;85.80;;;;;;5444736;26;20323;-59
2024/04/16 05:14:27;;;;;;;1.10;0.70;;;19.10;85.60;;;;;;5430637;26;20901;-42
2024/04/16 05:16:57;;;;;;;1.10;0.88;;;18.80;85.30;;;;;;5426348;26;20912;-56
2024/04/16 05:19:25;;;;;;;1.25;0.70;;;18.80;85.30;;;;;;5434673;26;20254;-55
2024/04/16 05:21:53;;;;;;;1.70;1.17;;;19.10;85.70;;;;;;5433345;26;20342;-49
2024/04/16 05:24:24;;;;;;;1.00;0.75;;;18.90;85.40;;;;;;5430651;26;20358;-46
2024/04/16 05:26:54;;;;;;;1.13;1.00;;;18.90;85.50;;;;;;5424276;26;20273;-49
2024/04/16 05:29:23;;;;;;;1.10;0.80;;;19.10;85.90;;;;;;5422993;26;20841;-57
2024/04/16 05:31:55;;;;;;;1.73;0.68;;;18.90;86.40;;;;;;5430339;26;20843;-57
2024/04/16 05:34:24;;;;;;;1.27;0.70;;;18.90;85.60;;;;;;5439105;26;20234;-59
2024/04/16 05:36:52;;;;;;;1.90;0.90;;;19.00;85.70;;;;;;5430720;26;20273;-43
2024/04/16 05:39:23;;;;;;;1.65;0.85;;;18.70;85.40;;;;;;5431214;26;20331;-54
2024/04/16 05:41:53;;;;;;;1.35;0.80;;;18.80;86.10;;;;;;5435855;26;20280;-48
2024/04/16 05:44:21;;;;;;;1.42;1.00;;;18.80;85.70;;;;;;5411560;26;20238;-57
2024/04/16 05:46:54;;;;;;;1.42;0.82;;;19.20;86.30;;;;;;5423340;26;20246;-51
2024/04/16 05:49:20;;;;;;;1.88;0.80;;;18.70;85.90;;;;;;5437398;26;21961;-41
2024/04/16 05:51:54;;;;;;;1.17;0.80;;;19.00;86.20;;;;;;5422692;26;21102;-42
2024/04/16 05:54:29;;;;;;;1.30;0.95;;;19.00;85.60;;;;;;5416487;26;20464;-54
2024/04/16 05:57:05;;;;;;;1.60;0.95;;;19.00;86.50;;;;;;5430524;26;20311;-48
2024/04/16 05:59:34;;;;;;;1.75;0.80;;;18.90;85.80;;;;;;5429916;26;23702;-41
2024/04/16 06:02:03;;;;;;;1.10;0.75;;;19.00;85.70;;;;;;5428788;26;20246;-51
2024/04/16 06:04:31;;;;;;;0.98;0.75;;;19.10;85.60;;;;;;5428186;26;20350;-54
2024/04/16 06:07:01;;;;;;;2.40;0.90;;;19.50;85.90;;;;;;5438322;26;20291;-48
2024/04/16 06:09:29;;;;;;;1.13;0.80;;;19.30;84.80;;;;;;5438123;26;20688;-52
2024/04/16 06:12:04;;;;;;;1.75;0.80;;;19.20;84.50;;;;;;5439771;26;20343;-47
2024/04/16 06:14:31;;;;;;;1.20;0.80;;;19.20;84.50;;;;;;5429623;26;20298;-54
2024/04/16 06:17:03;;;;;;;1.30;0.90;;;19.20;84.70;;;;;;5445179;26;20234;-51
2024/04/16 06:19:28;;;;;;;1.05;0.70;;;19.30;85.10;;;;;;5439785;26;21084;-55
2024/04/16 06:21:57;;;;;;;1.20;0.80;;;19.60;85.40;;;;;;5426908;26;20242;-52
2024/04/16 06:24:25;;;;;;;1.70;1.15;;;19.30;85.10;;;;;;5433681;26;20874;-46
2024/04/16 06:26:59;;;;;;;1.25;0.80;;;19.30;84.90;;;;;;5436144;26;20373;-45
2024/04/16 06:29:25;;;;;;;1.10;0.80;;;19.30;85.60;;;;;;5423482;26;20608;-56
2024/04/16 06:31:55;;;;;;;2.23;1.10;;;18.50;85.10;;;;;;5426587;26;20334;-46
2024/04/16 06:34:21;;;;;;;1.30;0.90;;;19.50;86.20;;;;;;5437240;26;21427;-41
2024/04/16 06:36:52;;;;;;;4.73;1.00;;;19.50;86.00;;;;;;5417145;26;20337;-47
2024/04/16 06:39:18;;;;;;;2.58;0.98;;;19.30;85.30;;;;;;5430478;26;21160;-43
2024/04/16 06:41:49;;;;;;;4.82;1.05;;;19.60;85.20;;;;;;5434388;26;20326;-52
2024/04/16 06:44:23;;;;;;;1.35;1.00;;;19.70;84.20;;;;;;5414742;26;20918;-46
2024/04/16 06:46:56;;;;;;;4.35;0.90;;;19.70;83.40;;;;;;5429331;26;20653;-40
2024/04/16 06:49:26;;;;;;;1.25;0.90;;;19.80;82.90;;;;;;5435318;26;21100;-50
2024/04/16 06:51:54;;;;;;;1.17;0.77;;;19.80;82.80;;;;;;5443010;26;20253;-51
2024/04/16 06:54:20;;;;;;;1.10;0.70;;;19.90;82.20;;;;;;5440723;26;20242;-52
2024/04/16 06:57:09;;;;;;;1.77;0.90;;;20.30;83.10;;;;;;5440144;26;20929;-49
2024/04/16 06:59:49;;;;;;;2.97;1.00;;;19.90;81.60;;;;;;5438792;26;20272;-51
2024/04/16 07:02:18;;;;;;;1.42;0.80;;;20.00;81.30;;;;;;5430514;26;24529;-39
2024/04/16 07:04:45;;;;;;;1.10;0.70;;;20.00;81.00;;;;;;5441084;26;20338;-49
2024/04/16 07:07:17;;;;;;;1.25;0.80;;;19.80;80.70;;;;;;5434366;26;20475;-51
2024/04/16 07:09:43;;;;;;;1.92;0.80;;;20.00;80.80;;;;;;5441744;26;20239;-43
2024/04/16 07:12:15;;;;;;;1.77;1.00;;;20.00;80.40;;;;;;5438221;26;20239;-47
2024/04/16 07:14:46;;;;;;;1.20;0.70;;;19.90;80.00;;;;;;5435206;26;20234;-45
2024/04/16 07:17:15;;;;;;;1.05;0.70;;;20.10;80.10;;;;;;5432910;26;20261;-52
2024/04/16 07:19:46;;;;;;;2.70;1.10;;;20.10;80.40;;;;;;5435254;26;21203;-46
2024/04/16 07:22:14;;;;;;;1.30;0.82;;;19.90;80.20;;;;;;5434802;26;20537;-49
2024/04/16 07:24:40;;;;;;;1.35;0.90;;;20.20;80.80;;;;;;5415967;26;20244;-49
2024/04/16 07:27:10;;;;;;;1.33;0.90;;;20.20;80.80;;;;;;5431545;26;20309;-44
2024/04/16 07:29:39;;;;;;;1.42;0.95;;;20.50;81.10;;;;;;5420668;26;20552;-52
2024/04/16 07:32:13;;;;;;;1.83;0.80;;;20.30;80.10;;;;;;5434008;26;20230;-42
2024/04/16 07:34:41;;;;;;;1.30;0.90;;;20.30;79.80;;;;;;5426539;26;20526;-43
2024/04/16 07:37:13;;;;;;;1.38;1.05;;;20.30;80.60;;;;;;5429195;26;20732;-48
2024/04/16 07:39:43;;;;;;;2.87;1.00;;;20.90;80.40;;;;;;5410708;26;20259;-54
2024/04/16 07:42:15;;;;;;;2.50;1.00;;;20.40;79.30;;;;;;5436513;26;20977;-50
2024/04/16 07:44:41;;;;;;;1.33;0.80;;;20.10;78.80;;;;;;5433095;26;21278;-46
2024/04/16 07:47:14;;;;;;;1.20;1.00;;;20.40;78.40;;;;;;5426909;26;20460;-47
2024/04/16 07:49:39;;;;;;;1.45;0.88;;;20.60;78.70;;;;;;5424856;26;20281;-52
2024/04/16 07:52:11;;;;;;;1.20;0.80;;;20.10;78.00;;;;;;5429253;26;20234;-53
2024/04/16 07:54:37;;;;;;;1.63;1.03;;;20.20;77.80;;;;;;5431049;26;20635;-55
2024/04/16 07:57:05;;;;;;;1.30;0.90;;;20.70;79.00;;;;;;5437177;26;20599;-57
2024/04/16 07:59:31;;;;;;;2.47;1.00;;;20.50;78.00;;;;;;5417920;26;20782;-52
2024/04/16 08:01:59;;;;;;;3.63;1.23;;;20.60;77.30;;;;;;5436129;26;20471;-54
2024/04/16 08:04:28;;;;;;;5.70;1.10;;;21.00;77.50;;;;;;5433937;26;20243;-44
2024/04/16 08:07:00;;;;;;;4.87;1.10;;;20.60;77.60;;;;;;5441460;26;20452;-46
2024/04/16 08:09:26;;;;;;;6.55;1.05;;;20.70;77.10;;;;;;5414314;26;20812;-53
2024/04/16 08:11:54;;;;;;;1.63;0.70;;;20.70;77.60;;;;;;5431119;26;20226;-48
2024/04/16 08:14:21;;;;;;;2.47;1.27;;;21.00;78.30;;;;;;5431924;26;21092;-48
2024/04/16 08:16:53;;;;;;;2.38;1.00;;;20.50;78.50;;;;;;5432169;26;21561;-47
2024/04/16 08:19:19;;;;;;;3.20;0.98;;;20.40;79.10;;;;;;5413929;26;20306;-49
2024/04/16 08:21:52;;;;;;;2.27;1.00;;;20.40;79.70;;;;;;5405860;26;20295;-47
2024/04/16 08:24:18;;;;;;;1.70;0.88;;;20.70;80.50;;;;;;5425705;26;20231;-51
2024/04/16 08:26:49;;;;;;;1.60;1.00;;;20.50;80.20;;;;;;5420800;26;20234;-57
2024/04/16 08:29:18;;;;;;;6.97;1.02;;;20.10;80.10;;;;;;5424667;26;20243;-55
2024/04/16 08:31:46;;;;;;;1.20;0.90;;;20.20;80.20;;;;;;5449483;26;20230;-46
2024/04/16 08:34:12;;;;;;;4.00;1.20;;;20.20;80.40;;;;;;5420854;26;20303;-59
2024/04/16 08:36:40;;;;;;;6.43;0.93;;;20.10;80.60;;;;;;5413916;26;20473;-52
2024/04/16 08:39:17;;;;;;;1.47;0.93;;;20.60;81.20;;;;;;5421012;26;22733;-42
2024/04/16 08:41:51;;;;;;;1.27;0.90;;;21.10;81.80;;;;;;5419185;26;20480;-54
2024/04/16 08:44:21;;;;;;;1.20;0.83;;;20.60;81.40;;;;;;5426302;26;20470;-55
2024/04/16 08:46:57;;;;;;;6.65;1.10;;;20.60;81.20;;;;;;5426302;26;21067;-51
2024/04/16 08:49:28;;;;;;;5.23;1.23;;;20.60;81.30;;;;;;5419785;26;20268;-57
2024/04/16 08:52:04;;;;;;;1.13;0.87;;;20.70;81.50;;;;;;5418617;26;20462;-47
2024/04/16 08:54:40;;;;;;;2.75;1.00;;;20.70;82.20;;;;;;5412305;26;21736;-46
2024/04/16 08:57:09;;;;;;;1.77;0.80;;;20.50;81.10;;;;;;5430149;26;20559;-47
2024/04/16 08:59:34;;;;;;;2.33;1.10;;;20.70;81.40;;;;;;5407568;26;20464;-46
2024/04/16 09:02:08;;;;;;;1.37;0.80;;;20.90;81.70;;;;;;5423009;26;21047;-42
2024/04/16 09:04:40;;;;;;;1.60;0.87;;;20.80;81.40;;;;;;5426153;26;20246;-45
2024/04/16 09:07:10;;;;;;;1.50;1.00;;;20.80;81.60;;;;;;5414131;26;20573;-45
2024/04/16 09:09:41;;;;;;;1.33;0.70;;;20.80;81.50;;;;;;5436820;26;21243;-44
2024/04/16 09:12:16;;;;;;;1.83;1.00;;;20.90;81.70;;;;;;5419429;26;20264;-44
2024/04/16 09:14:43;;;;;;;3.07;0.90;;;21.10;82.00;;;;;;5427320;26;20646;-46
2024/04/16 09:17:16;;;;;;;1.53;0.87;;;20.50;81.20;;;;;;5421574;26;21238;-47
2024/04/16 09:19:43;;;;;;;0.90;0.60;;;20.90;81.70;;;;;;5435111;26;20529;-41
2024/04/16 09:22:17;;;;;;;1.17;0.77;;;20.90;81.50;;;;;;5417108;26;20533;-46
2024/04/16 09:24:51;;;;;;;1.40;1.03;;;20.90;81.40;;;;;;5436668;26;20466;-46
2024/04/16 09:27:26;;;;;;;1.13;0.80;;;20.70;81.00;;;;;;5420703;26;20464;-40
2024/04/16 09:30:01;;;;;;;;;;;;;;;;;;;;;
2024/04/16 09:32:42;;;;;;;1.13;0.70;;;21.10;81.20;;;;;;5432679;26;20483;-44
2024/04/16 09:35:24;;;;;;;1.17;0.77;;;21.20;80.80;;;;;;5431310;26;20569;-46
2024/04/16 09:38:00;;;;;;;0.93;0.70;;;21.30;80.40;;;;;;5415147;26;20479;-53
2024/04/16 09:40:29;;;;;;;2.00;0.80;;;21.40;80.10;;;;;;5430319;26;21060;-47
2024/04/16 09:43:03;;;;;;;1.33;0.80;;;21.60;88.10;;;;;;5448152;26;20463;-45
2024/04/16 09:45:31;;;;;;;1.10;0.70;;;21.50;86.80;;;;;;5425651;26;20471;-46
2024/04/16 09:48:02;;;;;;;2.30;0.77;;;22.00;87.30;;;;;;5422716;26;21632;-46
2024/04/16 09:50:36;;;;;;;1.33;0.70;;;21.50;85.90;;;;;;5418441;26;20902;-41
2024/04/16 09:53:07;;;;;;;1.00;0.70;;;21.60;86.10;;;;;;5435552;26;20984;-43
2024/04/16 09:55:40;;;;;;;0.90;0.60;;;22.40;86.70;;;;;;5420189;26;20471;-46
2024/04/16 09:58:16;;;;;;;1.00;0.80;;;21.70;86.50;;;;;;5418924;26;22665;-50
2024/04/16 10:00:51;;;;;;;1.10;0.70;;;22.30;87.50;;;;;;5403877;26;22805;-48
2024/04/16 10:03:23;;;;;;;1.63;1.10;;;21.50;85.40;;;;;;5399787;26;20594;-50
2024/04/16 10:05:55;;;;;;;1.30;0.80;;;21.70;85.60;;;;;;5417867;26;21038;-45
2024/04/16 10:08:29;;;;;;;1.00;0.70;;;21.90;85.70;;;;;;5420044;26;20597;-47
2024/04/16 10:11:06;;;;;;;1.67;0.80;;;21.90;85.60;;;;;;5420561;26;20991;-45
2024/04/16 10:13:51;;;;;;;1.57;0.80;;;21.50;84.60;;;;;;5432889;26;21178;-45
2024/04/16 10:16:19;;;;;;;1.20;0.70;;;21.80;85.00;;;;;;5418544;26;20593;-41
2024/04/16 10:18:59;;;;;;;1.40;0.90;;;22.50;85.50;;;;;;5435746;26;20821;-44
2024/04/16 10:21:43;;;;;;;1.00;0.60;;;21.50;84.20;;;;;;5430308;26;20447;-46
2024/04/16 10:24:19;;;;;;;1.13;0.60;;;21.60;84.50;;;;;;5425705;26;21607;-46
2024/04/16 10:26:51;;;;;;;0.93;0.60;;;21.60;85.50;;;;;;5414174;26;20467;-44
2024/04/16 10:29:26;;;;;;;1.07;0.80;;;21.50;84.80;;;;;;5435242;26;20550;-43
2024/04/16 10:31:54;;;;;;;1.00;0.70;;;21.60;84.60;;;;;;5419108;26;20569;-45
2024/04/16 10:34:31;;;;;;;1.10;0.70;;;21.50;85.30;;;;;;5421773;26;20465;-47
2024/04/16 10:36:59;;;;;;;1.53;1.00;;;21.70;85.30;;;;;;5427089;26;20804;-47
2024/04/16 10:39:33;;;;;;;1.00;0.60;;;21.70;85.50;;;;;;5424550;26;20596;-40
2024/04/16 10:42:05;;;;;;;1.80;0.67;;;22.50;86.00;;;;;;5429438;26;20467;-43
2024/04/16 10:44:38;;;;;;;1.03;0.63;;;21.90;84.50;;;;;;5406849;26;20455;-42
2024/04/16 10:47:07;;;;;;;1.50;0.70;;;22.20;84.70;;;;;;5430773;26;20587;-42
2024/04/16 10:49:39;;;;;;;0.90;0.63;;;21.90;83.80;;;;;;5424711;26;20577;-42
2024/04/16 10:52:15;;;;;;;1.20;0.70;;;22.50;84.30;;;;;;5434246;26;20476;-45
2024/04/16 10:54:47;;;;;;;1.10;0.70;;;21.80;83.40;;;;;;5429931;26;20545;-42
2024/04/16 10:57:21;;;;;;;1.73;1.00;;;21.70;83.90;;;;;;5427643;26;21137;-51
2024/04/16 10:59:53;;;;;;;1.00;0.60;;;21.60;83.90;;;;;;5429144;26;20463;-44
2024/04/16 11:02:19;;;;;;;1.63;0.77;;;21.70;84.30;;;;;;5420627;26;20468;-51
2024/04/16 11:04:47;;;;;;;1.03;0.70;;;22.60;85.10;;;;;;5437000;26;20479;-53
2024/04/16 11:07:17;;;;;;;1.50;0.90;;;21.90;84.10;;;;;;5419923;26;21028;-46
2024/04/16 11:09:49;;;;;;;1.30;0.90;;;21.40;83.40;;;;;;5418063;26;20463;-40
2024/04/16 11:12:17;;;;;;;0.93;0.73;;;22.00;83.00;;;;;;5431157;26;20804;-43
2024/04/16 11:14:48;;;;;;;1.20;0.80;;;22.00;83.70;;;;;;5406167;26;20806;-46
2024/04/16 11:17:15;;;;;;;2.10;0.83;;;22.10;83.30;;;;;;5418094;26;20464;-49
2024/04/16 11:19:47;;;;;;;1.10;0.70;;;22.00;83.20;;;;;;5428032;26;21255;-52
2024/04/16 11:22:18;;;;;;;2.90;0.80;;;21.80;84.00;;;;;;5403220;26;21092;-49
2024/04/16 11:24:46;;;;;;;3.80;0.80;;;22.30;81.20;;;;;;5444737;26;20473;-44
2024/04/16 11:27:27;;;;;;;1.73;0.70;;;22.20;81.20;;;;;;5426579;26;20652;-47
2024/04/16 11:30:06;;;;;;;2.03;0.90;;;21.90;81.50;;;;;;5417797;26;20721;-47
2024/04/16 11:32:34;;;;;;;3.93;0.80;;;22.70;81.60;;;;;;5403009;26;20475;-45
2024/04/16 11:35:04;;;;;;;1.73;0.80;;;22.40;81.20;;;;;;5418901;26;20590;-38
2024/04/16 11:37:39;;;;;;;1.60;0.87;;;22.70;81.80;;;;;;5411956;26;20468;-44
2024/04/16 11:40:11;;;;;;;1.30;0.90;;;21.90;80.80;;;;;;5422963;26;20539;-46
2024/04/16 11:42:47;;;;;;;1.00;0.80;;;22.20;80.20;;;;;;5414053;26;20900;-48
2024/04/16 11:45:22;;;;;;;1.03;0.77;;;22.50;81.70;;;;;;5405770;26;20510;-45
2024/04/16 11:47:47;;;;;;;0.90;0.60;;;22.10;82.50;;;;;;5412886;26;20578;-44
2024/04/16 11:50:16;;;;;;;3.77;0.70;;;22.40;82.60;;;;;;5421889;26;20893;-46
2024/04/16 11:52:41;;;;;;;1.60;0.70;;;22.00;81.50;;;;;;5405087;26;22115;-47
2024/04/16 11:55:13;;;;;;;1.00;0.70;;;22.00;82.40;;;;;;5409644;26;21077;-45
2024/04/16 11:57:40;;;;;;;1.00;0.70;;;21.90;81.00;;;;;;5427866;26;20335;-47
2024/04/16 12:00:16;;;;;;;1.50;0.80;;;22.70;81.60;;;;;;5420250;26;20453;-45
2024/04/16 12:02:44;;;;;;;0.93;0.67;;;22.10;81.10;;;;;;5425783;26;21274;-45
2024/04/16 12:05:15;;;;;;;1.07;0.70;;;22.30;81.70;;;;;;5417160;26;20717;-52
2024/04/16 12:07:41;;;;;;;3.67;0.70;;;22.10;81.70;;;;;;5436384;26;20475;-43
2024/04/16 12:10:28;;;;;;;1.10;0.77;;;22.20;81.70;;;;;;5464552;26;20459;-47
2024/04/16 12:12:57;;;;;;;0.90;0.60;;;22.00;82.30;;;;;;5435269;26;20344;-46
2024/04/16 12:15:34;;;;;;;1.00;0.67;;;22.00;82.40;;;;;;5422715;26;20475;-53
2024/04/16 12:18:00;;;;;;;2.90;0.70;;;22.30;82.60;;;;;;5434033;26;20462;-46
2024/04/16 12:20:45;;;;;;;1.93;0.80;;;22.50;84.00;;;;;;5429040;26;20536;-42
2024/04/16 12:23:17;;;;;;;2.70;1.73;;;22.30;81.40;;;;;;5420523;26;20265;-44
2024/04/16 12:25:47;;;;;;;1.77;0.70;;;22.20;83.50;;;;;;5424213;26;20948;-50
2024/04/16 12:28:18;;;;;;;2.10;1.10;;;22.10;83.40;;;;;;5420376;26;20615;-48
2024/04/16 12:30:56;;;;;;;1.20;0.63;;;22.30;84.10;;;;;;5432252;26;20530;-46
2024/04/16 12:33:30;;;;;;;1.13;0.70;;;22.40;83.30;;;;;;5401177;26;21024;-45
2024/04/16 12:36:08;;;;;;;1.00;0.70;;;22.10;82.90;;;;;;5432842;26;20468;-45
2024/04/16 12:38:38;;;;;;;1.00;0.70;;;22.10;83.10;;;;;;5421056;26;21724;-47
2024/04/16 12:41:11;;;;;;;3.20;0.70;;;22.10;83.10;;;;;;5406401;26;20475;-48
2024/04/16 12:43:37;;;;;;;1.57;0.70;;;21.60;82.00;;;;;;5417559;26;20467;-44
2024/04/16 12:46:08;;;;;;;1.10;0.67;;;22.10;83.30;;;;;;5426723;26;20912;-45
2024/04/16 12:48:42;;;;;;;1.00;0.80;;;21.90;82.70;;;;;;5432917;26;20875;-40
2024/04/16 12:51:14;;;;;;;1.37;0.70;;;22.30;81.00;;;;;;5431548;26;20979;-43
2024/04/16 12:53:41;;;;;;;2.40;0.80;;;22.10;83.00;;;;;;5421701;26;20529;-43
2024/04/16 12:56:16;;;;;;;1.67;0.70;;;22.30;83.10;;;;;;5432357;26;20537;-43
2024/04/16 12:58:44;;;;;;;0.97;0.70;;;22.10;82.80;;;;;;5428174;26;21759;-49
2024/04/16 13:01:26;;;;;;;0.90;0.60;;;22.20;83.40;;;;;;5418201;26;21334;-44
2024/04/16 13:03:57;;;;;;;1.20;0.70;;;22.40;83.80;;;;;;5422903;26;20554;-44
2024/04/16 13:06:29;;;;;;;1.00;0.70;;;22.20;83.00;;;;;;5435828;26;20467;-48